Impacts METAR Board
IDs:

KSLC - Salt Lake City Intl, UT, US

Updated at: 2200 UTC 02 Oct 2022
Potential Impact None Slight Moderate High
Time 02/10Z 02/11Z 02/12Z 02/13Z 02/14Z 02/15Z 02/16Z 02/17Z 02/18Z 02/19Z 02/20Z 02/21Z 02/22Z
Temp56 56 54 53 53 58 62 66 68 68 70 72 72
Dewpt47 46 45 44 42 41 41 41 42 43 44 44 42
Altim30.05 30.05 30.06 30.07 30.09 30.10 30.11 30.11 30.11 30.10 30.09 30.07 30.06
VIS10 10 10 10 10 10 10 10 10 10 10 10 10
CIG180 110 -- 180 260 260 190 180 200 180 240 220 220
CoverBKNBKNSCTBKNBKNBKNBKNBKNBKNBKNBKNBKNBKN
FltCatVFRVFRVFRVFRVFRVFRVFRVFRVFRVFRVFRVFRVFR
WX--------------------------
WDir2402101401501501301300330340330310320
WSpd4 4 6 3 5 6 6 0 4 7 9 10 9
WGst-- -- -- -- -- -- -- -- -- -- -- -- --
Raw hourly METARs
KSLC 020954Z 24004KT 10SM SCT110 BKN180 13/08 A3005 RMK AO2 SLP136 T01330083 $
KSLC 021054Z 21004KT 10SM BKN110 BKN180 13/08 A3005 RMK AO2 SLP139 T01330078 $
KSLC 021154Z 14006KT 10SM FEW110 SCT180 12/07 A3006 RMK AO2 SLP143 60000 T01220072 10156 20122 53004 $
KSLC 021254Z 15003KT 10SM FEW110 BKN180 12/07 A3007 RMK AO2 SLP149 T01170067 $
KSLC 021354Z 15005KT 10SM FEW110 SCT190 BKN260 12/06 A3009 RMK AO2 SLP156 T01170056 $
KSLC 021454Z 13006KT 10SM FEW100 SCT190 BKN260 14/05 A3010 RMK AO2 SLP161 T01440050 53012 $
KSLC 021554Z 13006KT 10SM SCT100 BKN190 BKN260 17/05 A3011 RMK AO2 SLP161 T01670050 $
KSLC 021654Z 00000KT 10SM SCT110 BKN180 BKN260 19/05 A3011 RMK AO2 SLP161 T01890050 $
KSLC 021754Z 33004KT 10SM SCT120 BKN200 BKN260 20/06 A3011 RMK AO2 SLP159 T02000056 10206 20117 50003 $
KSLC 021854Z 34007KT 10SM SCT120 BKN180 BKN240 20/06 A3010 RMK AO2 SLP155 ACSL DSNT NE-SE T02000061 $
KSLC 021954Z 33009KT 10SM FEW120 SCT180 BKN240 21/07 A3009 RMK AO2 SLP150 T02110067 $
KSLC 022054Z 31010KT 10SM FEW070 SCT140 BKN220 22/07 A3007 RMK AO2 SLP142 T02220067 58013 $
KSLC 022154Z 32009KT 10SM FEW070 SCT140 BKN220 22/06 A3006 RMK AO2 SLP142 TCU DSNT SW T02220056 $



Page loaded:  22:09 UTC  |   03:09 PM Pacific  |   04:09 PM Mountain  |   05:09 PM Central  |   06:09 PM Eastern

 

ADVISORIES

FORECASTS

FORECASTS

OBSERVATIONS

USER TOOLS

ABOUT US